Descanso, CA

8:26 AM PDT on August 28, 2014 (GMT -0700)
Sherilton Valley | Change Station
CLOSE
Current Station
Personal Weather Station
Location: Descanso, CA
Elevation: 3264 ft
Nearby Weather Stations

Elev 3264 ft 32.90 °N, 116.62 °W | Updated 1 minute ago

Clear
Clear
77.5 °F
Feels Like 78 °F
N
0.0
Wind Variable Wind from ESE
Gusts 1.0 mph

Today
High -- | Low -- °F
--% Chance of Precip.
Yesterday
High -- | Low -- °F
Precip. -- in
6:18 AM 7:16 PM
Waxing Crescent, 8% visible
Pressure 29.98 in
Visibility -9999.0 miles
Clouds
Heat Index 78 °F
Dew Point 51 °F
Humidity 39%
Rainfall 0.00 in
Snow Depth Not available.
UV Not available.
Pollen 7.30 out of 12
Air Quality Not available.
Flu Activity Not available.
METAR KCZZ 281452Z AUTO 00000KT 20/09 A3007 RMK AO1 SLP150 T02000094 50003

More Conditions Fewer Conditions

Pressure 29.98 in
Visibility -9999.0 miles
Clouds
Heat Index 78 °F
Dew Point 51 °F
Humidity 39%
Rainfall 0.00 in
Snow Depth Not available.
UV Not available.
Pollen 7.30 out of 12
Air Quality Not available.
Flu Activity Not available.
METAR KCZZ 281452Z AUTO 00000KT 20/09 A3007 RMK AO1 SLP150 T02000094 50003

More Conditions Fewer Conditions

10-Day Weather Forecast

Almanac

Astronomy

Aug. 28, 2014 Rise Set
Actual Time 6:18 AM PDT 7:16 PM PDT
Civil Twilight 5:53 AM PDT 7:41 PM PDT
Nautical Twilight 5:23 AM PDT 8:11 PM PDT
Astronomical Twilight 4:52 AM PDT 8:42 PM PDT
Moon 9:03 AM PDT 8:55 PM PDT
Length of Visible Light 13h 48m
Length of Day
12h 57m
Tomorrow will be 1m 54s shorter.
Waxing Crescent, 8% of the Moon is Illuminated
Today
Waxing Crescent
Sep 2
First Quarter
Sep 8
Full
Sep 15
Last Quarter
Sep 24
New

Today's Extremes

State Highs State Lows

Community

WunderPhotos

Upload Photos

1,747,984 photos uploaded!

Nearby

Snow Depth

Station Depth Elevation
Leavitt Lake 1 in 9400 ft
Leavitt Meadows 1 in 7200 ft
Sonora Pass 0 in 8800 ft
Summit Meadow 2 in 9122 ft
Poison Flat 0 in 7900 ft

Earthquake Activity

City Distance Mag. Time & Date
San Fernando, California 137 miles 2.5 4:57 AM PDT
2014-08-26
Progreso, Mexico 59 miles 2.6 10:55 PM PDT
2014-08-25
Minimum magnitude displayed is 2.5.

Coastal Water Temperatures

Place Temperature
No Stations Reporting

Nearby Weather Stations